Terminal Aerodrome Forecast
Issued by NWS

Current Version | Previous Version | Graphics & Text | Print | Product List | Glossary On
Versions: 1 2 3 4 5 6 7 8 9 10 11 12 13 14 15 16 17 18 19 20
000
FTUS41 KRNK 262119 AAA
TAFLWB
TAF AMD
KLWB 262119Z 2621/2718 29010G25KT P6SM -TSRA OVC035CB
     FM262300 28007KT P6SM VCTS SCT015CB OVC025
     FM270100 26004KT 3SM SHRA BR OVC015
     FM270600 28004KT P6SM SCT015 BKN100
     FM271000 00000KT 1SM BR VV007
     FM271100 28002KT 1/4SM FG OVC001
     FM271500 32007KT P6SM SCT018 OVC035=

USA.gov is the U.S. government's official web portal to all federal, state and local government web resources and services.